createdAt,value
2023-05-01T00:04:00.177Z,141.65
2023-05-01T00:09:03.415Z,298.23
2023-05-01T00:14:11.467Z,225.15
2023-05-01T00:19:18.753Z,185.98
2023-05-01T00:24:22.016Z,228.55
2023-05-01T00:29:25.469Z,345.42
2023-05-01T00:34:29.237Z,290.75
2023-05-01T00:39:32.562Z,310.75
2023-05-01T00:55:34.578Z,339.83
2023-05-01T01:06:06.038Z,241.15
2023-05-01T01:11:29.582Z,310.07
2023-05-01T01:16:45.887Z,240.77
2023-05-01T01:21:56.456Z,290.27
2023-05-01T01:27:31.181Z,201.57
2023-05-01T01:33:08.315Z,156.45
2023-05-01T01:38:21.567Z,129.57
2023-05-01T01:43:27.496Z,113.00
2023-05-01T01:48:42.601Z,54.20
2023-05-01T01:53:50.874Z,66.90
2023-05-01T01:58:57.730Z,159.48
2023-05-01T02:04:03.914Z,283.58
2023-05-01T02:09:10.083Z,297.88
2023-05-01T02:14:15.418Z,319.50
2023-05-01T02:19:21.647Z,322.50
2023-05-01T02:24:28.885Z,317.43
2023-05-01T02:34:37.466Z,246.70
2023-05-01T02:39:41.193Z,354.55
2023-05-01T02:44:54.636Z,338.73
2023-05-01T02:49:59.750Z,218.57
2023-05-01T02:55:04.206Z,383.40
2023-05-01T03:00:12.069Z,250.60
2023-05-01T03:05:15.914Z,470.13
2023-05-01T03:10:19.846Z,315.48
2023-05-01T03:15:23.440Z,300.25
2023-05-01T03:20:27.696Z,314.45
2023-05-01T03:25:31.508Z,396.98
2023-05-01T03:30:36.581Z,481.42
2023-05-01T03:35:42.234Z,452.30
2023-05-01T03:40:46.568Z,398.83
2023-05-01T03:46:09.680Z,356.17
2023-05-01T03:51:13.916Z,239.63
2023-05-01T03:56:18.536Z,164.88
2023-05-01T04:01:22.328Z,220.93
2023-05-01T04:06:26.933Z,82.03
2023-05-01T04:11:31.898Z,55.38
2023-05-01T04:16:36.562Z,45.10
2023-05-01T04:21:41.917Z,16.95
2023-05-01T04:26:45.839Z,18.65
2023-05-01T04:31:49.894Z,18.05
2023-05-01T04:36:53.916Z,16.23
2023-05-01T04:41:58.735Z,51.40
2023-05-01T04:47:03.632Z,193.15
2023-05-01T04:52:08.529Z,214.95
2023-05-01T04:57:27.584Z,257.88
2023-05-01T05:02:33.026Z,202.98
2023-05-01T05:07:38.659Z,181.98
2023-05-01T05:13:06.409Z,177.50
2023-05-01T05:18:11.463Z,321.45
2023-05-01T05:23:15.701Z,356.25
2023-05-01T05:28:21.469Z,298.83
2023-05-01T05:33:27.326Z,98.15
2023-05-01T05:38:33.774Z,36.47
2023-05-01T05:43:41.408Z,13.90
2023-05-01T05:48:47.646Z,7.65
2023-05-01T05:53:52.657Z,34.55
2023-05-01T05:58:57.055Z,12.43
2023-05-01T06:04:01.746Z,18.63
2023-05-01T06:09:09.558Z,13.77
2023-05-01T06:14:18.867Z,16.40
2023-05-01T06:19:23.301Z,12.27
2023-05-01T06:24:33.633Z,10.02
2023-05-01T06:29:39.136Z,12.90
2023-05-01T06:34:43.401Z,31.42
2023-05-01T06:39:49.992Z,309.63
2023-05-01T06:44:54.060Z,336.33
2023-05-01T06:49:58.789Z,528.72
2023-05-01T06:55:04.830Z,356.88
2023-05-01T07:00:11.433Z,196.50
2023-05-01T07:05:16.190Z,140.15
2023-05-01T07:10:21.692Z,66.20
2023-05-01T07:15:27.538Z,48.42
2023-05-01T07:20:32.898Z,206.90
2023-05-01T07:25:46.125Z,221.88
2023-05-01T07:30:52.500Z,401.73
2023-05-01T07:35:58.733Z,546.15
2023-05-01T07:41:04.995Z,466.50
2023-05-01T07:46:13.023Z,355.30
2023-05-01T07:51:19.339Z,372.92
2023-05-01T07:56:27.526Z,294.50
2023-05-01T08:01:35.936Z,281.58
2023-05-01T08:06:42.923Z,139.65
2023-05-01T08:11:47.462Z,393.88
2023-05-01T08:16:56.762Z,259.67
2023-05-01T08:22:03.586Z,307.65
2023-05-01T08:27:09.552Z,249.07
2023-05-01T08:32:15.933Z,263.83
2023-05-01T08:37:21.708Z,63.78
2023-05-01T08:42:31.024Z,31.80
2023-05-01T08:47:39.407Z,368.35
2023-05-01T08:52:45.138Z,127.43
2023-05-01T08:57:50.199Z,27.87
2023-05-01T09:02:55.292Z,36.53
2023-05-01T09:08:02.579Z,187.15
2023-05-01T09:13:11.543Z,457.75
2023-05-01T09:18:16.592Z,493.67
2023-05-01T09:23:21.148Z,462.92
2023-05-01T09:28:57.938Z,520.47
2023-05-01T09:34:05.317Z,546.47
2023-05-01T09:39:23.676Z,464.90
2023-05-01T09:44:29.259Z,392.17
2023-05-01T09:49:49.134Z,424.38
2023-05-01T09:55:16.748Z,346.88
2023-05-01T10:00:23.276Z,51.95
2023-05-01T10:05:44.178Z,581.10
2023-05-01T10:11:06.504Z,868.25
2023-05-01T10:16:30.909Z,711.83
2023-05-01T10:21:36.704Z,559.55
2023-05-01T10:26:45.044Z,395.88
2023-05-01T10:31:51.931Z,169.30
2023-05-01T10:37:06.173Z,26.88
2023-05-01T10:42:15.079Z,26.23
2023-05-01T10:47:32.608Z,24.52
2023-05-01T10:53:12.750Z,20.65
2023-05-01T10:58:39.272Z,19.73
2023-05-01T11:03:45.515Z,28.75
2023-05-01T11:08:50.168Z,21.92
2023-05-01T11:14:11.841Z,21.42
2023-05-01T11:19:24.198Z,22.85
2023-05-01T11:24:36.730Z,23.67
2023-05-01T11:29:46.097Z,26.05
2023-05-01T11:34:52.508Z,24.60
2023-05-01T11:40:00.928Z,26.35
2023-05-01T11:45:13.240Z,28.02
2023-05-01T11:50:18.988Z,26.40
2023-05-01T11:55:35.809Z,27.23
2023-05-01T12:05:50.609Z,28.90
2023-05-01T12:10:57.994Z,22.58
2023-05-01T12:16:04.834Z,24.65
2023-05-01T12:21:18.827Z,23.60
2023-05-01T12:26:29.580Z,24.33
2023-05-01T12:31:35.395Z,41.10
2023-05-01T12:36:40.734Z,580.50
2023-05-01T12:41:47.869Z,584.58
2023-05-01T12:47:10.766Z,478.17
2023-05-01T12:52:17.949Z,314.45
2023-05-01T12:57:24.241Z,371.33
2023-05-01T13:02:37.705Z,115.50
2023-05-01T13:07:51.076Z,237.95
2023-05-01T13:12:56.252Z,63.60
2023-05-01T13:18:05.808Z,124.35
2023-05-01T13:23:14.766Z,187.35
2023-05-01T13:28:21.445Z,205.63
2023-05-01T13:33:26.767Z,128.48
2023-05-01T13:38:36.000Z,72.13
2023-05-01T13:43:41.793Z,118.68
2023-05-01T13:48:50.110Z,19.77
2023-05-01T13:53:55.538Z,28.23
2023-05-01T13:59:03.731Z,13.47
2023-05-01T14:04:13.664Z,14.30
2023-05-01T14:09:19.352Z,16.50
2023-05-01T14:14:23.333Z,31.88
2023-05-01T14:19:27.869Z,13.73
2023-05-01T14:24:35.327Z,21.00
2023-05-01T14:29:46.147Z,14.02
2023-05-01T14:34:49.956Z,14.52
2023-05-01T14:39:53.973Z,16.83
2023-05-01T14:44:58.884Z,19.02
2023-05-01T14:50:03.117Z,19.13
2023-05-01T14:55:07.143Z,20.77
2023-05-01T15:00:12.678Z,23.27
2023-05-01T15:05:18.838Z,219.53
2023-05-01T15:10:26.525Z,435.75
2023-05-01T15:15:30.835Z,99.93
2023-05-01T15:20:35.813Z,23.93
2023-05-01T15:25:45.380Z,43.97
2023-05-01T15:30:54.521Z,33.05
2023-05-01T15:35:59.865Z,23.02
2023-05-01T15:41:05.327Z,122.55
2023-05-01T15:46:13.848Z,106.30
2023-05-01T15:51:18.406Z,86.65
2023-05-01T15:56:24.647Z,188.00
2023-05-01T16:01:37.392Z,191.75
2023-05-01T16:06:44.787Z,329.35
2023-05-01T16:11:53.756Z,49.65
2023-05-01T16:17:00.252Z,28.17
2023-05-01T16:22:07.450Z,29.23
2023-05-01T16:27:18.907Z,106.28
2023-05-01T16:32:24.836Z,44.85
2023-05-01T16:37:29.434Z,43.47
2023-05-01T16:42:36.912Z,78.53
2023-05-01T16:47:44.549Z,32.00
2023-05-01T16:52:50.257Z,33.03
2023-05-01T16:57:55.063Z,33.78
2023-05-01T17:03:00.361Z,23.25
2023-05-01T17:08:08.274Z,23.88
2023-05-01T17:13:16.776Z,27.10
2023-05-01T17:18:22.460Z,19.40
2023-05-01T17:23:29.928Z,20.42
2023-05-01T17:28:37.226Z,18.42
2023-05-01T17:38:46.862Z,21.20
2023-05-01T17:43:51.524Z,21.50
2023-05-01T17:48:56.476Z,23.75
2023-05-01T17:54:03.267Z,26.50
2023-05-01T17:59:08.174Z,30.13
2023-05-01T18:04:13.057Z,22.77
2023-05-01T18:09:17.582Z,30.17
2023-05-01T18:14:22.134Z,29.05
2023-05-01T18:19:25.350Z,25.60
2023-05-01T18:24:30.063Z,23.88
2023-05-01T18:29:34.302Z,29.67
2023-05-01T18:34:38.899Z,28.75
2023-05-01T18:39:42.672Z,31.48
2023-05-01T18:44:47.276Z,29.48
2023-05-01T18:49:51.617Z,26.90
2023-05-01T18:54:55.250Z,29.80
2023-05-01T19:00:01.741Z,27.77
2023-05-01T19:05:10.817Z,34.72
2023-05-01T19:10:14.522Z,35.00
2023-05-01T19:15:18.941Z,37.80
2023-05-01T19:20:23.071Z,28.58
2023-05-01T19:25:27.387Z,27.15
2023-05-01T19:30:32.518Z,30.45
2023-05-01T19:35:40.422Z,28.88
2023-05-01T19:40:45.894Z,26.00
2023-05-01T19:45:51.559Z,25.42
2023-05-01T19:50:56.849Z,20.23
2023-05-01T19:56:01.144Z,20.92
2023-05-01T20:01:11.020Z,23.75
2023-05-01T20:06:15.431Z,27.35
2023-05-01T20:11:19.311Z,23.38
2023-05-01T20:16:23.740Z,29.30
2023-05-01T20:21:30.404Z,28.17
2023-05-01T20:26:34.648Z,22.42
2023-05-01T20:31:38.286Z,23.48
2023-05-01T20:36:43.617Z,22.73
2023-05-01T20:41:48.553Z,21.15
2023-05-01T20:46:53.512Z,21.25
2023-05-01T20:51:59.063Z,21.95
2023-05-01T20:57:04.328Z,25.67
2023-05-01T21:02:09.286Z,24.25
2023-05-01T21:07:13.896Z,28.27
2023-05-01T21:12:17.798Z,30.48
2023-05-01T21:17:23.765Z,27.75
2023-05-01T21:22:37.162Z,35.55
2023-05-01T21:27:43.993Z,26.70
2023-05-01T21:32:48.492Z,41.50
2023-05-01T21:37:52.746Z,33.03
2023-05-01T21:42:57.177Z,45.63
2023-05-01T21:48:02.606Z,32.90
2023-05-01T21:53:09.529Z,37.83
2023-05-01T22:03:20.115Z,20.75
2023-05-01T22:08:23.906Z,17.52
2023-05-01T22:13:33.646Z,17.92
2023-05-01T22:18:37.665Z,15.10
2023-05-01T22:23:42.045Z,18.50
2023-05-01T22:28:46.266Z,16.77
2023-05-01T22:33:51.091Z,18.63
2023-05-01T22:38:55.255Z,18.55
2023-05-01T22:43:58.694Z,21.08
2023-05-01T22:49:04.598Z,12.70
2023-05-01T22:54:07.999Z,12.60
2023-05-01T22:59:13.099Z,13.98
2023-05-01T23:04:16.637Z,15.95
2023-05-01T23:09:20.908Z,10.27
2023-05-01T23:14:26.012Z,17.90
2023-05-01T23:19:29.932Z,20.60
2023-05-01T23:24:48.557Z,14.68
2023-05-01T23:29:55.257Z,12.65
2023-05-01T23:35:15.141Z,13.15
2023-05-01T23:40:19.175Z,18.63
2023-05-01T23:45:22.644Z,17.52
2023-05-01T23:50:28.567Z,14.05
2023-05-01T23:55:32.102Z,14.52
